Time;durP1;ratioP1;P1;durP2;ratioP2;P2;SDS_P1;SDS_P2;PMS_P1;PMS_P2;Temp;Humidity;BMP_temperature;BMP_pressure;BME280_temperature;BME280_humidity;BME280_pressure;Samples;Min_cycle;Max_cycle;Signal;HPM_P1;HPM_P2
2022/12/24 00:02:01;;;;;;;44.42;16.50;;;;;;;;;;5051222;28;20421;-79
2022/12/24 00:04:27;;;;;;;50.63;17.65;;;;;;;;;;5050821;28;20041;-79
2022/12/24 00:06:53;;;;;;;45.95;17.13;;;;;;;;;;5050659;28;20044;-78
2022/12/24 00:09:19;;;;;;;51.13;18.13;;;;;;;;;;5051028;28;20126;-78
2022/12/24 00:11:45;;;;;;;48.13;17.45;;;;;;;;;;5050398;28;20036;-79
2022/12/24 00:14:11;;;;;;;59.35;18.40;;;;;;;;;;5050977;28;20037;-79
2022/12/24 00:16:37;;;;;;;58.88;18.42;;;;;;;;;;5053808;28;20064;-78
2022/12/24 00:19:03;;;;;;;52.78;17.58;;;;;;;;;;5061788;28;20497;-78
2022/12/24 00:21:29;;;;;;;55.90;18.42;;;;;;;;;;5051921;28;20060;-78
2022/12/24 00:23:56;;;;;;;60.40;18.88;;;;;;;;;;5050556;28;20044;-78
2022/12/24 00:26:22;;;;;;;59.17;18.63;;;;;;;;;;5034044;28;20080;-78
2022/12/24 00:28:49;;;;;;;59.97;19.00;;;;;;;;;;5050241;28;20079;-78
2022/12/24 00:31:16;;;;;;;58.22;18.23;;;;;;;;;;5050749;28;20073;-78
2022/12/24 00:33:42;;;;;;;57.17;18.80;;;;;;;;;;5051877;28;20507;-78
2022/12/24 00:36:09;;;;;;;51.95;17.25;;;;;;;;;;5034100;28;20132;-78
2022/12/24 00:38:35;;;;;;;56.25;18.42;;;;;;;;;;5050308;28;20040;-78
2022/12/24 00:41:02;;;;;;;57.67;18.10;;;;;;;;;;5035410;28;20041;-78
2022/12/24 00:43:29;;;;;;;56.03;17.40;;;;;;;;;;5054535;28;20045;-78
2022/12/24 00:45:55;;;;;;;60.63;18.52;;;;;;;;;;5054327;28;20049;-78
2022/12/24 00:48:21;;;;;;;56.42;17.73;;;;;;;;;;5054678;28;20037;-79
2022/12/24 00:50:48;;;;;;;52.45;17.65;;;;;;;;;;5053969;28;20041;-78
2022/12/24 00:53:14;;;;;;;55.08;17.52;;;;;;;;;;5054480;28;20405;-78
2022/12/24 00:55:40;;;;;;;53.13;16.90;;;;;;;;;;5053953;28;20566;-78
2022/12/24 00:58:06;;;;;;;47.15;16.80;;;;;;;;;;5054285;28;20482;-78
2022/12/24 01:00:32;;;;;;;50.08;16.17;;;;;;;;;;5037809;28;20528;-79
2022/12/24 01:02:58;;;;;;;47.70;16.05;;;;;;;;;;5053933;28;20131;-78
2022/12/24 01:05:25;;;;;;;47.33;15.95;;;;;;;;;;5054277;28;20402;-78
2022/12/24 01:07:52;;;;;;;45.03;15.23;;;;;;;;;;5054013;28;20037;-78
2022/12/24 01:10:19;;;;;;;43.72;15.13;;;;;;;;;;5053915;28;20044;-78
2022/12/24 01:12:46;;;;;;;43.58;15.07;;;;;;;;;;5053770;28;20033;-78
2022/12/24 01:15:13;;;;;;;38.60;14.23;;;;;;;;;;5053782;28;20489;-78
2022/12/24 01:17:39;;;;;;;34.38;12.57;;;;;;;;;;5053475;28;20052;-78
2022/12/24 01:20:07;;;;;;;35.80;13.85;;;;;;;;;;5037058;28;20040;-77
2022/12/24 01:22:33;;;;;;;30.30;12.88;;;;;;;;;;5053626;28;20043;-77
2022/12/24 01:24:59;;;;;;;30.77;13.52;;;;;;;;;;5053568;28;20045;-78
2022/12/24 01:27:25;;;;;;;32.55;12.38;;;;;;;;;;5053524;28;20063;-78
2022/12/24 01:29:51;;;;;;;27.02;12.30;;;;;;;;;;5053040;28;20084;-78
2022/12/24 01:32:17;;;;;;;29.13;12.32;;;;;;;;;;5036966;28;20041;-78
2022/12/24 01:34:43;;;;;;;29.27;12.82;;;;;;;;;;5053062;28;20048;-79
2022/12/24 01:37:09;;;;;;;28.35;11.27;;;;;;;;;;5053086;28;20037;-79
2022/12/24 01:39:35;;;;;;;32.33;11.27;;;;;;;;;;5053529;28;20052;-78
2022/12/24 01:44:48;;;;;;;31.33;10.07;;;;;;;;;;5052991;28;20136;-79
2022/12/24 01:47:21;;;;;;;26.90;10.02;;;;;;;;;;5053222;28;20045;-80
2022/12/24 01:49:51;;;;;;;28.52;10.13;;;;;;;;;;5052859;28;20056;-79
2022/12/24 01:52:20;;;;;;;35.10;10.27;;;;;;;;;;5052727;28;20044;-79
2022/12/24 01:54:49;;;;;;;25.48;9.70;;;;;;;;;;5036019;28;20048;-79
2022/12/24 01:57:15;;;;;;;29.85;10.05;;;;;;;;;;5053038;28;20043;-79
2022/12/24 01:59:43;;;;;;;33.55;10.50;;;;;;;;;;5053023;28;20123;-79
2022/12/24 02:02:09;;;;;;;37.03;10.40;;;;;;;;;;5052471;28;20041;-79
2022/12/24 02:04:39;;;;;;;31.92;8.98;;;;;;;;;;5052893;28;20055;-79
2022/12/24 02:07:05;;;;;;;31.58;7.65;;;;;;;;;;5052368;28;20040;-79
2022/12/24 02:09:32;;;;;;;27.10;6.90;;;;;;;;;;5052567;28;20073;-79
2022/12/24 02:11:58;;;;;;;30.42;6.88;;;;;;;;;;5052652;28;20063;-79
2022/12/24 02:14:25;;;;;;;26.85;6.65;;;;;;;;;;5052612;28;20041;-79
2022/12/24 02:17:10;;;;;;;28.58;6.35;;;;;;;;;;5052398;28;20089;-79
2022/12/24 02:19:36;;;;;;;25.83;5.60;;;;;;;;;;5052487;28;20048;-79
2022/12/24 02:22:11;;;;;;;29.05;5.28;;;;;;;;;;5052040;28;20167;-79
2022/12/24 02:24:45;;;;;;;39.70;5.80;;;;;;;;;;5052751;28;20406;-79
2022/12/24 02:27:21;;;;;;;35.70;4.80;;;;;;;;;;5038126;28;20099;-79
2022/12/24 02:29:56;;;;;;;28.17;4.03;;;;;;;;;;5052128;28;20119;-79
2022/12/24 02:32:41;;;;;;;37.35;6.57;;;;;;;;;;5052290;28;20106;-79
2022/12/24 02:35:10;;;;;;;26.30;4.00;;;;;;;;;;5050765;28;20080;-79
2022/12/24 02:37:52;;;;;;;41.97;4.75;;;;;;;;;;5052244;28;20033;-79
2022/12/24 02:40:24;;;;;;;37.50;4.82;;;;;;;;;;5052532;28;20083;-79
2022/12/24 02:42:53;;;;;;;42.63;4.93;;;;;;;;;;5053147;28;20036;-79
2022/12/24 02:45:25;;;;;;;30.13;4.57;;;;;;;;;;5052297;28;20037;-79
2022/12/24 02:47:52;;;;;;;44.72;5.20;;;;;;;;;;5051654;28;20098;-79
2022/12/24 02:50:18;;;;;;;41.97;5.35;;;;;;;;;;5051802;28;20506;-77
2022/12/24 02:52:46;;;;;;;42.80;4.47;;;;;;;;;;5052034;28;20040;-77
2022/12/24 02:55:16;;;;;;;36.42;4.68;;;;;;;;;;5051412;28;20072;-79
2022/12/24 02:57:45;;;;;;;33.88;4.53;;;;;;;;;;5050965;28;20036;-79
2022/12/24 03:00:13;;;;;;;32.45;4.72;;;;;;;;;;5051768;28;20123;-78
2022/12/24 03:02:48;;;;;;;40.17;4.60;;;;;;;;;;5050217;28;20040;-78
2022/12/24 03:05:17;;;;;;;38.83;5.78;;;;;;;;;;5049851;28;20037;-78
2022/12/24 03:08:03;;;;;;;40.25;5.68;;;;;;;;;;5076532;28;20119;-78
2022/12/24 03:10:29;;;;;;;38.92;5.68;;;;;;;;;;5057221;28;20037;-78
2022/12/24 03:13:02;;;;;;;36.40;4.15;;;;;;;;;;5071145;28;20041;-78
2022/12/24 03:15:29;;;;;;;33.75;4.75;;;;;;;;;;5055865;28;20059;-78
2022/12/24 03:17:57;;;;;;;31.02;4.38;;;;;;;;;;5059397;28;20048;-78
2022/12/24 03:20:31;;;;;;;36.10;5.88;;;;;;;;;;5070836;28;20040;-78
2022/12/24 03:22:57;;;;;;;34.47;5.35;;;;;;;;;;5051298;28;20036;-78
2022/12/24 03:25:24;;;;;;;26.80;4.05;;;;;;;;;;5051388;28;20557;-78
2022/12/24 03:27:51;;;;;;;34.50;4.40;;;;;;;;;;5040462;28;20217;-79
2022/12/24 03:30:17;;;;;;;29.20;4.43;;;;;;;;;;5070968;28;20055;-78
2022/12/24 03:32:43;;;;;;;34.15;4.15;;;;;;;;;;5056883;28;20039;-79
2022/12/24 03:35:10;;;;;;;35.75;4.70;;;;;;;;;;5063312;28;20048;-78
2022/12/24 03:37:37;;;;;;;34.53;4.65;;;;;;;;;;5071464;28;20094;-78
2022/12/24 03:40:04;;;;;;;38.13;4.82;;;;;;;;;;5054005;28;20036;-78
2022/12/24 03:42:30;;;;;;;34.45;4.38;;;;;;;;;;5071417;28;20471;-78
2022/12/24 03:44:56;;;;;;;33.40;4.75;;;;;;;;;;5048808;28;20545;-78
2022/12/24 03:47:22;;;;;;;36.53;4.05;;;;;;;;;;5034739;28;20494;-79
2022/12/24 03:49:48;;;;;;;35.53;4.38;;;;;;;;;;5050863;28;20072;-78
2022/12/24 03:52:14;;;;;;;44.00;5.43;;;;;;;;;;5044470;28;20048;-78
2022/12/24 03:54:40;;;;;;;39.42;5.68;;;;;;;;;;5070275;28;20044;-78
2022/12/24 03:57:06;;;;;;;32.28;4.65;;;;;;;;;;5058668;28;20044;-79
2022/12/24 03:59:32;;;;;;;36.15;4.10;;;;;;;;;;5070692;28;20089;-78
2022/12/24 04:01:58;;;;;;;39.53;4.60;;;;;;;;;;5052084;28;20044;-78
2022/12/24 04:04:24;;;;;;;33.10;4.18;;;;;;;;;;5050856;28;20041;-78
2022/12/24 04:06:50;;;;;;;45.88;4.72;;;;;;;;;;5056930;28;20068;-78
2022/12/24 04:09:16;;;;;;;37.60;4.70;;;;;;;;;;5070377;28;20049;-78
2022/12/24 04:11:42;;;;;;;27.02;4.20;;;;;;;;;;5070823;28;20038;-78
2022/12/24 04:14:09;;;;;;;39.58;4.70;;;;;;;;;;5070998;28;20433;-78
2022/12/24 04:16:35;;;;;;;40.80;4.93;;;;;;;;;;5059985;28;20473;-78
2022/12/24 04:19:01;;;;;;;44.67;4.75;;;;;;;;;;5057835;28;20043;-78
2022/12/24 04:21:27;;;;;;;37.90;5.05;;;;;;;;;;5058191;28;20101;-78
2022/12/24 04:23:53;;;;;;;37.42;4.88;;;;;;;;;;5055808;28;20069;-79
2022/12/24 04:26:19;;;;;;;33.58;4.30;;;;;;;;;;5053908;28;20061;-78
2022/12/24 04:28:45;;;;;;;40.88;4.70;;;;;;;;;;5056180;28;20045;-78
2022/12/24 04:31:13;;;;;;;39.17;4.47;;;;;;;;;;5066555;28;20048;-78
2022/12/24 04:33:39;;;;;;;38.60;4.60;;;;;;;;;;5064034;28;20056;-78
2022/12/24 04:36:06;;;;;;;46.47;6.68;;;;;;;;;;5046456;28;20409;-78
2022/12/24 04:38:33;;;;;;;38.28;5.05;;;;;;;;;;5057829;28;20032;-79
2022/12/24 04:41:04;;;;;;;43.78;4.90;;;;;;;;;;5043698;28;20032;-78
2022/12/24 04:43:30;;;;;;;45.90;5.85;;;;;;;;;;5063270;28;20044;-78
2022/12/24 04:45:56;;;;;;;39.55;5.25;;;;;;;;;;5057472;28;20068;-79
2022/12/24 04:48:22;;;;;;;34.53;4.97;;;;;;;;;;5075243;28;20039;-78
2022/12/24 04:50:48;;;;;;;38.33;4.90;;;;;;;;;;5074233;28;20102;-78
2022/12/24 04:53:14;;;;;;;46.65;5.00;;;;;;;;;;5067221;28;20040;-78
2022/12/24 04:55:44;;;;;;;38.83;5.68;;;;;;;;;;5067804;28;20047;-78
2022/12/24 04:58:11;;;;;;;40.88;5.45;;;;;;;;;;5060880;28;20032;-78
2022/12/24 05:00:37;;;;;;;38.08;5.47;;;;;;;;;;5072494;28;20110;-78
2022/12/24 05:03:03;;;;;;;40.40;4.75;;;;;;;;;;5056500;28;20052;-78
2022/12/24 05:05:29;;;;;;;50.40;6.00;;;;;;;;;;5050737;28;20044;-78
2022/12/24 05:07:55;;;;;;;38.33;5.68;;;;;;;;;;5054045;28;20481;-78
2022/12/24 05:10:21;;;;;;;36.95;4.38;;;;;;;;;;5057559;28;20119;-78
2022/12/24 05:12:47;;;;;;;51.40;5.47;;;;;;;;;;5047036;28;20044;-78
2022/12/24 05:15:13;;;;;;;40.03;6.00;;;;;;;;;;5039494;28;20041;-78
2022/12/24 05:17:39;;;;;;;37.60;4.63;;;;;;;;;;5056964;28;20048;-78
2022/12/24 05:20:15;;;;;;;39.10;4.70;;;;;;;;;;5073711;28;20045;-78
2022/12/24 05:28:20;;;;;;;31.23;5.47;;;;;;;;;;5086360;28;20048;-73
2022/12/24 05:30:46;;;;;;;36.47;6.00;;;;;;;;;;5071595;28;20044;-72
2022/12/24 05:33:12;;;;;;;41.70;5.65;;;;;;;;;;5072040;28;20048;-72
2022/12/24 05:35:41;;;;;;;47.00;5.80;;;;;;;;;;5069664;28;20051;-72
2022/12/24 05:38:07;;;;;;;44.88;6.45;;;;;;;;;;5056472;28;20043;-72
2022/12/24 05:40:33;;;;;;;50.15;5.32;;;;;;;;;;5072690;28;20171;-73
2022/12/24 05:42:59;;;;;;;45.10;5.10;;;;;;;;;;5039906;28;20394;-72
2022/12/24 05:45:26;;;;;;;40.13;5.38;;;;;;;;;;5072703;28;20067;-72
2022/12/24 05:47:52;;;;;;;47.50;4.90;;;;;;;;;;5072763;28;20119;-73
2022/12/24 05:50:18;;;;;;;47.75;4.88;;;;;;;;;;5074045;28;20105;-72
2022/12/24 05:52:44;;;;;;;50.08;5.80;;;;;;;;;;5074460;28;20056;-72
2022/12/24 05:55:10;;;;;;;40.80;6.50;;;;;;;;;;5072910;28;20040;-72
2022/12/24 05:57:36;;;;;;;40.70;4.30;;;;;;;;;;5072335;28;20807;-72
2022/12/24 06:00:02;;;;;;;50.67;6.15;;;;;;;;;;5072789;28;20063;-72
2022/12/24 06:02:28;;;;;;;43.33;5.10;;;;;;;;;;5055726;28;20040;-72
2022/12/24 06:04:54;;;;;;;48.05;6.25;;;;;;;;;;5071420;28;20083;-72
2022/12/24 06:07:20;;;;;;;43.95;5.43;;;;;;;;;;5059867;28;20037;-73
2022/12/24 06:09:47;;;;;;;41.63;4.97;;;;;;;;;;5074078;28;20063;-73
2022/12/24 06:12:13;;;;;;;47.75;5.50;;;;;;;;;;5073193;28;20048;-73
2022/12/24 06:14:39;;;;;;;46.53;5.90;;;;;;;;;;5072887;28;20079;-72
2022/12/24 06:17:05;;;;;;;48.15;5.15;;;;;;;;;;5055709;28;20093;-72
2022/12/24 06:19:31;;;;;;;41.05;4.65;;;;;;;;;;5072499;28;20489;-72
2022/12/24 06:21:57;;;;;;;41.92;4.32;;;;;;;;;;5072173;28;20403;-72
2022/12/24 06:24:23;;;;;;;49.83;5.55;;;;;;;;;;5072165;28;20045;-72
2022/12/24 06:26:49;;;;;;;47.33;5.45;;;;;;;;;;5073226;28;20052;-72
2022/12/24 06:29:15;;;;;;;43.55;5.63;;;;;;;;;;5073097;28;20041;-73
2022/12/24 06:31:41;;;;;;;40.33;4.50;;;;;;;;;;5072016;28;20052;-72
2022/12/24 06:34:07;;;;;;;41.08;5.03;;;;;;;;;;5067185;28;20039;-72
2022/12/24 06:36:33;;;;;;;38.70;5.00;;;;;;;;;;5055064;28;20064;-72
2022/12/24 06:38:59;;;;;;;44.35;4.90;;;;;;;;;;5071187;28;20485;-72
2022/12/24 06:41:25;;;;;;;38.13;4.90;;;;;;;;;;5071830;28;20378;-72
2022/12/24 06:43:52;;;;;;;54.03;5.45;;;;;;;;;;5071669;28;20070;-72
2022/12/24 06:46:18;;;;;;;44.50;5.38;;;;;;;;;;5071375;28;20087;-73
2022/12/24 06:48:45;;;;;;;50.08;5.68;;;;;;;;;;5071580;28;20127;-72
2022/12/24 06:51:11;;;;;;;46.33;5.00;;;;;;;;;;5072093;28;20485;-72
2022/12/24 06:53:37;;;;;;;49.45;5.75;;;;;;;;;;5071509;28;20504;-72
2022/12/24 06:56:08;;;;;;;42.03;5.00;;;;;;;;;;5072960;28;20052;-72
2022/12/24 06:58:34;;;;;;;40.97;4.40;;;;;;;;;;5072389;28;20044;-72
2022/12/24 07:01:04;;;;;;;38.78;4.38;;;;;;;;;;5054947;28;20442;-72
2022/12/24 07:03:31;;;;;;;42.40;4.95;;;;;;;;;;5072576;28;20043;-72
2022/12/24 07:05:57;;;;;;;44.10;5.10;;;;;;;;;;5061443;28;20044;-72
2022/12/24 07:08:24;;;;;;;35.17;4.18;;;;;;;;;;5067261;28;20447;-72
2022/12/24 07:10:50;;;;;;;36.90;4.45;;;;;;;;;;5071299;28;20052;-72
2022/12/24 07:13:16;;;;;;;37.22;4.70;;;;;;;;;;5054713;28;20544;-72
2022/12/24 07:15:42;;;;;;;40.22;4.78;;;;;;;;;;5071226;28;20082;-72
2022/12/24 07:18:08;;;;;;;42.65;5.53;;;;;;;;;;5072517;28;20531;-72
2022/12/24 07:20:34;;;;;;;36.10;5.07;;;;;;;;;;5071011;28;20488;-72
2022/12/24 07:23:01;;;;;;;37.92;4.82;;;;;;;;;;5072402;28;20059;-72
2022/12/24 07:25:27;;;;;;;53.35;5.60;;;;;;;;;;5070957;28;20053;-72
2022/12/24 07:27:53;;;;;;;51.60;5.03;;;;;;;;;;5070929;28;20132;-72
2022/12/24 07:30:19;;;;;;;45.40;4.78;;;;;;;;;;5072085;28;20036;-72
2022/12/24 07:32:45;;;;;;;41.83;6.72;;;;;;;;;;5072036;28;20072;-72
2022/12/24 07:35:11;;;;;;;40.60;6.05;;;;;;;;;;5066798;28;20067;-72
2022/12/24 07:37:38;;;;;;;37.58;4.93;;;;;;;;;;5070839;28;20123;-72
2022/12/24 07:40:06;;;;;;;41.05;4.78;;;;;;;;;;5054278;28;20041;-73
2022/12/24 07:42:33;;;;;;;44.28;4.80;;;;;;;;;;5054622;28;20036;-73
2022/12/24 07:44:59;;;;;;;44.28;5.75;;;;;;;;;;5070862;28;20044;-73
2022/12/24 07:47:25;;;;;;;45.03;5.25;;;;;;;;;;5070813;28;20037;-72
2022/12/24 07:49:51;;;;;;;47.80;6.07;;;;;;;;;;5070570;28;20114;-72
2022/12/24 07:52:17;;;;;;;57.22;5.75;;;;;;;;;;5071057;28;20044;-72
2022/12/24 07:54:43;;;;;;;45.10;5.50;;;;;;;;;;5070385;28;20036;-72
2022/12/24 07:57:09;;;;;;;50.13;5.28;;;;;;;;;;5070967;28;20041;-72
2022/12/24 07:59:37;;;;;;;40.50;5.38;;;;;;;;;;5037115;28;20050;-72
2022/12/24 08:02:03;;;;;;;47.90;5.28;;;;;;;;;;5070838;28;20067;-72
2022/12/24 08:04:32;;;;;;;40.10;5.85;;;;;;;;;;5070365;28;20083;-72
2022/12/24 08:06:58;;;;;;;36.92;3.90;;;;;;;;;;5056709;28;20075;-72
2022/12/24 08:09:24;;;;;;;47.00;4.88;;;;;;;;;;5071871;28;20103;-72
2022/12/24 08:11:50;;;;;;;38.13;5.47;;;;;;;;;;5070366;28;20090;-72
2022/12/24 08:14:16;;;;;;;45.45;4.80;;;;;;;;;;5053933;28;20071;-72
2022/12/24 08:16:42;;;;;;;42.58;5.95;;;;;;;;;;5070114;28;20068;-72
2022/12/24 08:19:08;;;;;;;47.08;5.82;;;;;;;;;;5070578;28;20098;-73
2022/12/24 08:21:34;;;;;;;50.30;5.55;;;;;;;;;;5053760;28;20051;-73
2022/12/24 08:24:00;;;;;;;46.92;5.60;;;;;;;;;;5070658;28;20044;-72
2022/12/24 08:26:26;;;;;;;41.30;5.80;;;;;;;;;;5070717;28;20056;-72
2022/12/24 08:28:52;;;;;;;47.97;5.78;;;;;;;;;;5070219;28;20060;-72
2022/12/24 08:31:18;;;;;;;42.78;4.78;;;;;;;;;;5070570;28;20037;-72
2022/12/24 08:33:44;;;;;;;48.65;6.05;;;;;;;;;;5066805;28;20049;-72
2022/12/24 08:36:11;;;;;;;45.03;6.10;;;;;;;;;;5054211;28;20485;-72
2022/12/24 08:38:37;;;;;;;47.35;5.95;;;;;;;;;;5070339;28;20392;-73
2022/12/24 08:41:03;;;;;;;46.33;5.45;;;;;;;;;;5070287;28;20063;-72
2022/12/24 08:43:29;;;;;;;38.35;5.40;;;;;;;;;;5070680;28;20119;-72
2022/12/24 08:45:55;;;;;;;42.70;4.82;;;;;;;;;;5071001;28;20093;-72
2022/12/24 08:48:21;;;;;;;41.30;5.03;;;;;;;;;;5070510;28;20371;-72
2022/12/24 08:50:47;;;;;;;44.05;5.75;;;;;;;;;;5069687;28;20076;-72
2022/12/24 08:53:13;;;;;;;42.45;5.55;;;;;;;;;;5070300;28;20078;-72
2022/12/24 08:55:39;;;;;;;49.28;6.28;;;;;;;;;;5069934;28;20059;-73
2022/12/24 08:58:05;;;;;;;48.58;5.50;;;;;;;;;;5071797;28;20090;-73
2022/12/24 09:00:32;;;;;;;39.22;5.72;;;;;;;;;;5071644;28;20116;-72
2022/12/24 09:02:58;;;;;;;51.33;7.22;;;;;;;;;;5070895;28;20043;-72
2022/12/24 09:05:24;;;;;;;46.03;5.25;;;;;;;;;;5057536;28;20041;-72
2022/12/24 09:07:51;;;;;;;45.95;6.47;;;;;;;;;;5065220;28;20076;-72
2022/12/24 09:10:17;;;;;;;47.20;5.80;;;;;;;;;;5073334;28;20040;-72
2022/12/24 09:12:43;;;;;;;47.88;6.00;;;;;;;;;;5073272;28;20115;-72
2022/12/24 09:15:09;;;;;;;49.88;5.65;;;;;;;;;;5073694;28;20040;-72
2022/12/24 09:17:35;;;;;;;39.45;4.78;;;;;;;;;;5074819;28;20040;-72
2022/12/24 09:20:02;;;;;;;49.00;5.07;;;;;;;;;;5073768;28;20037;-72
2022/12/24 09:22:28;;;;;;;47.30;5.65;;;;;;;;;;5073832;28;20631;-71
2022/12/24 09:24:54;;;;;;;38.72;4.80;;;;;;;;;;5056442;28;20132;-72
2022/12/24 09:27:20;;;;;;;32.42;4.90;;;;;;;;;;5073070;28;20052;-72
2022/12/24 09:29:47;;;;;;;31.95;4.28;;;;;;;;;;5072799;28;20464;-72
2022/12/24 09:32:13;;;;;;;34.72;5.22;;;;;;;;;;5073165;28;20063;-72
2022/12/24 09:34:39;;;;;;;28.75;4.53;;;;;;;;;;5051611;28;20080;-72
2022/12/24 09:37:05;;;;;;;38.83;4.82;;;;;;;;;;5073169;28;20120;-72
2022/12/24 09:39:31;;;;;;;40.63;4.80;;;;;;;;;;5073024;28;20040;-73
2022/12/24 09:42:18;;;;;;;37.17;4.75;;;;;;;;;;5073041;28;20477;-71
2022/12/24 09:45:07;;;;;;;41.97;5.53;;;;;;;;;;5056084;28;20047;-72
2022/12/24 09:47:48;;;;;;;46.55;5.93;;;;;;;;;;5070751;28;20137;-72
2022/12/24 09:50:20;;;;;;;38.72;5.05;;;;;;;;;;5063480;28;20041;-72
2022/12/24 09:52:48;;;;;;;42.03;5.18;;;;;;;;;;5055891;28;20068;-72
2022/12/24 09:55:20;;;;;;;39.58;5.07;;;;;;;;;;5073079;28;20036;-72
2022/12/24 09:57:47;;;;;;;39.47;5.40;;;;;;;;;;5073874;28;20051;-72
2022/12/24 10:00:19;;;;;;;35.70;4.80;;;;;;;;;;5056494;28;20521;-72
2022/12/24 10:02:45;;;;;;;31.65;4.10;;;;;;;;;;5073662;28;20130;-72
2022/12/24 10:05:15;;;;;;;39.92;5.47;;;;;;;;;;5069103;28;20413;-72
2022/12/24 10:07:53;;;;;;;43.55;4.75;;;;;;;;;;5063112;28;20047;-72
2022/12/24 10:10:26;;;;;;;30.40;4.43;;;;;;;;;;5055910;28;20041;-73
2022/12/24 10:13:11;;;;;;;32.08;4.57;;;;;;;;;;5072133;28;20036;-72
2022/12/24 10:15:46;;;;;;;35.90;4.82;;;;;;;;;;5072237;28;20154;-72
2022/12/24 10:18:12;;;;;;;28.90;4.32;;;;;;;;;;5072590;28;20499;-72
2022/12/24 10:20:47;;;;;;;33.53;3.72;;;;;;;;;;5072220;28;20080;-72
2022/12/24 10:23:34;;;;;;;31.67;4.28;;;;;;;;;;5060301;28;20037;-72
2022/12/24 10:26:16;;;;;;;40.83;5.35;;;;;;;;;;5029393;28;20090;-72
2022/12/24 10:28:51;;;;;;;33.13;3.88;;;;;;;;;;5055526;28;20114;-72
2022/12/24 10:31:20;;;;;;;38.08;4.75;;;;;;;;;;5072819;28;20485;-72
2022/12/24 10:33:53;;;;;;;37.38;4.65;;;;;;;;;;5067159;28;20504;-72
2022/12/24 10:36:27;;;;;;;40.80;4.88;;;;;;;;;;5055465;28;20047;-72
2022/12/24 10:38:54;;;;;;;41.88;5.10;;;;;;;;;;5071966;28;20123;-72
2022/12/24 10:41:20;;;;;;;36.17;4.90;;;;;;;;;;5055232;28;20036;-72
2022/12/24 10:43:47;;;;;;;34.33;4.93;;;;;;;;;;5071980;28;20036;-72
2022/12/24 10:46:23;;;;;;;28.08;3.88;;;;;;;;;;5072001;28;20508;-72
2022/12/24 10:48:58;;;;;;;33.40;5.07;;;;;;;;;;5072543;28;20040;-72
2022/12/24 10:51:24;;;;;;;43.50;5.30;;;;;;;;;;5071756;28;20059;-72
2022/12/24 10:54:05;;;;;;;39.00;5.75;;;;;;;;;;5054716;28;20037;-72
2022/12/24 10:56:32;;;;;;;39.88;4.32;;;;;;;;;;5071807;28;20047;-72
2022/12/24 10:58:58;;;;;;;38.00;5.07;;;;;;;;;;5071347;28;20036;-72
2022/12/24 11:01:56;;;;;;;38.13;4.63;;;;;;;;;;5054733;28;20466;-72
2022/12/24 11:04:24;;;;;;;43.13;5.32;;;;;;;;;;5032671;28;20051;-72
2022/12/24 11:06:59;;;;;;;51.15;6.13;;;;;;;;;;5056999;28;20040;-72
2022/12/24 11:09:30;;;;;;;37.85;4.25;;;;;;;;;;5071555;28;20466;-71
2022/12/24 11:11:57;;;;;;;34.28;4.55;;;;;;;;;;5072130;28;20074;-73
2022/12/24 11:14:24;;;;;;;35.40;4.47;;;;;;;;;;5071277;28;20125;-73
2022/12/24 11:16:52;;;;;;;30.15;4.32;;;;;;;;;;5071580;28;20116;-73
2022/12/24 11:19:19;;;;;;;26.55;3.97;;;;;;;;;;5054539;28;20037;-73
2022/12/24 11:21:45;;;;;;;35.47;3.90;;;;;;;;;;5071067;28;20044;-73
2022/12/24 11:24:11;;;;;;;31.75;5.07;;;;;;;;;;5070612;28;20047;-73
2022/12/24 11:26:38;;;;;;;34.97;4.03;;;;;;;;;;5054345;28;20048;-73
2022/12/24 11:29:07;;;;;;;39.20;4.40;;;;;;;;;;5054314;28;20440;-73
2022/12/24 11:31:36;;;;;;;34.90;4.82;;;;;;;;;;5071136;28;20048;-73
2022/12/24 11:34:17;;;;;;;26.95;4.05;;;;;;;;;;5066303;28;20045;-73
2022/12/24 11:36:43;;;;;;;32.35;3.83;;;;;;;;;;5071213;28;20119;-72
2022/12/24 11:39:18;;;;;;;29.00;3.78;;;;;;;;;;5054190;28;20040;-73
2022/12/24 11:41:44;;;;;;;27.03;3.97;;;;;;;;;;5071254;28;20512;-72
2022/12/24 11:44:11;;;;;;;31.15;4.40;;;;;;;;;;5072405;28;20037;-73
2022/12/24 11:46:45;;;;;;;34.33;4.03;;;;;;;;;;5071122;28;20079;-72
2022/12/24 11:49:11;;;;;;;29.45;3.97;;;;;;;;;;5071049;28;20051;-73
2022/12/24 11:51:38;;;;;;;29.92;4.30;;;;;;;;;;5070824;28;20044;-74
2022/12/24 11:54:21;;;;;;;38.72;4.30;;;;;;;;;;5070669;28;20131;-73
2022/12/24 11:56:49;;;;;;;30.48;3.80;;;;;;;;;;5070918;28;20036;-73
2022/12/24 11:59:25;;;;;;;29.55;3.50;;;;;;;;;;5070832;28;20127;-73
2022/12/24 12:01:59;;;;;;;24.57;4.67;;;;;;;;;;5071061;28;20052;-73
2022/12/24 12:04:30;;;;;;;28.33;3.67;;;;;;;;;;5071137;28;20293;-73
2022/12/24 12:06:59;;;;;;;23.02;3.70;;;;;;;;;;5057839;28;20044;-73
2022/12/24 12:09:30;;;;;;;28.50;3.40;;;;;;;;;;5070938;28;20396;-73
2022/12/24 12:12:04;;;;;;;33.92;4.22;;;;;;;;;;5070330;28;20033;-73
2022/12/24 12:14:34;;;;;;;23.65;4.13;;;;;;;;;;5070784;28;20072;-73
2022/12/24 12:17:04;;;;;;;28.08;4.47;;;;;;;;;;5070129;28;20068;-73
2022/12/24 12:19:32;;;;;;;31.05;3.47;;;;;;;;;;5053956;28;20157;-72
2022/12/24 12:21:59;;;;;;;28.00;3.72;;;;;;;;;;5071328;28;20489;-73
2022/12/24 12:24:28;;;;;;;26.10;3.85;;;;;;;;;;5071825;28;20107;-72
2022/12/24 12:27:00;;;;;;;27.63;3.92;;;;;;;;;;5070297;28;20583;-72
2022/12/24 12:29:35;;;;;;;27.58;3.75;;;;;;;;;;5070439;28;20052;-73
2022/12/24 12:32:05;;;;;;;38.45;4.78;;;;;;;;;;5069826;28;20040;-73
2022/12/24 12:34:38;;;;;;;24.02;3.35;;;;;;;;;;5049398;28;20481;-72
2022/12/24 12:37:07;;;;;;;23.48;4.38;;;;;;;;;;5036962;28;20040;-72
2022/12/24 12:39:35;;;;;;;22.90;3.60;;;;;;;;;;5054275;28;20135;-72
2022/12/24 12:42:27;;;;;;;29.52;4.55;;;;;;;;;;5053979;28;20040;-73
2022/12/24 12:45:02;;;;;;;25.92;5.07;;;;;;;;;;5054504;28;20048;-72
2022/12/24 12:47:32;;;;;;;41.47;7.07;;;;;;;;;;5054488;28;20072;-72
2022/12/24 12:49:58;;;;;;;27.55;5.10;;;;;;;;;;5054445;28;20641;-73
2022/12/24 12:52:41;;;;;;;30.17;5.20;;;;;;;;;;5053338;28;20041;-73
2022/12/24 12:55:18;;;;;;;35.53;5.32;;;;;;;;;;5053966;28;20446;-73
2022/12/24 12:57:45;;;;;;;33.90;5.53;;;;;;;;;;5053734;28;20123;-73
2022/12/24 13:00:14;;;;;;;30.88;5.70;;;;;;;;;;5053677;28;20045;-73
2022/12/24 13:02:59;;;;;;;35.55;5.93;;;;;;;;;;5037181;28;20041;-73
2022/12/24 13:05:31;;;;;;;28.88;5.30;;;;;;;;;;5053350;28;20032;-72
2022/12/24 13:08:09;;;;;;;27.50;4.65;;;;;;;;;;5066360;28;20501;-72
2022/12/24 13:10:47;;;;;;;26.02;5.07;;;;;;;;;;5068769;28;20040;-73
2022/12/24 13:13:32;;;;;;;29.77;5.57;;;;;;;;;;5036652;28;20041;-73
2022/12/24 13:16:17;;;;;;;27.27;5.68;;;;;;;;;;5055208;28;20045;-73
2022/12/24 13:19:07;;;;;;;36.88;6.78;;;;;;;;;;5053320;28;20037;-72
2022/12/24 13:21:33;;;;;;;33.25;7.07;;;;;;;;;;5037020;28;20555;-72
2022/12/24 13:24:20;;;;;;;29.73;6.88;;;;;;;;;;5053448;28;20041;-73
2022/12/24 13:27:02;;;;;;;35.47;7.40;;;;;;;;;;5036821;28;20498;-72
2022/12/24 13:29:49;;;;;;;26.38;6.50;;;;;;;;;;5052993;28;20418;-73
2022/12/24 13:32:21;;;;;;;28.90;5.38;;;;;;;;;;5076112;28;20371;-72
2022/12/24 13:34:49;;;;;;;30.73;4.63;;;;;;;;;;5047195;28;20073;-73
2022/12/24 13:37:22;;;;;;;25.17;4.00;;;;;;;;;;5052547;28;20045;-72
2022/12/24 13:40:07;;;;;;;28.55;3.80;;;;;;;;;;5054394;28;20048;-72
2022/12/24 13:43:11;;;;;;;18.95;3.95;;;;;;;;;;5036592;28;20056;-72
2022/12/24 13:45:38;;;;;;;23.90;2.78;;;;;;;;;;5052075;28;20041;-71
2022/12/24 13:48:06;;;;;;;23.17;2.88;;;;;;;;;;5035037;28;20047;-72
2022/12/24 13:50:35;;;;;;;25.88;3.60;;;;;;;;;;5058696;28;20064;-72
2022/12/24 13:53:01;;;;;;;18.60;2.83;;;;;;;;;;5036474;28;20493;-72
2022/12/24 13:55:28;;;;;;;21.83;3.15;;;;;;;;;;5053941;28;20068;-72
2022/12/24 13:57:54;;;;;;;26.15;3.75;;;;;;;;;;5036472;28;20444;-73
2022/12/24 14:00:20;;;;;;;25.23;3.10;;;;;;;;;;5052427;28;20086;-73
2022/12/24 14:03:05;;;;;;;20.10;3.70;;;;;;;;;;5052627;28;20080;-72
2022/12/24 14:05:58;;;;;;;17.65;2.80;;;;;;;;;;5052648;28;20567;-72
2022/12/24 14:08:26;;;;;;;24.13;3.55;;;;;;;;;;5067348;28;20102;-72
2022/12/24 14:10:59;;;;;;;28.05;3.75;;;;;;;;;;5072626;28;20047;-72
2022/12/24 14:13:37;;;;;;;27.95;3.42;;;;;;;;;;5071965;28;20037;-72
2022/12/24 14:16:04;;;;;;;20.83;2.78;;;;;;;;;;5072936;28;20512;-72
2022/12/24 14:18:38;;;;;;;23.05;3.50;;;;;;;;;;5072024;28;20042;-72
2022/12/24 14:21:05;;;;;;;19.10;2.75;;;;;;;;;;5064228;28;20041;-73
2022/12/24 14:23:42;;;;;;;17.77;2.63;;;;;;;;;;5067410;28;20045;-73
2022/12/24 14:26:12;;;;;;;14.20;2.53;;;;;;;;;;5073435;28;20516;-73
2022/12/24 14:28:43;;;;;;;18.05;2.80;;;;;;;;;;5071887;28;20414;-73
2022/12/24 14:31:18;;;;;;;20.23;3.05;;;;;;;;;;5055473;28;20050;-73
2022/12/24 14:33:45;;;;;;;19.92;2.47;;;;;;;;;;5067390;28;20041;-73
2022/12/24 14:36:13;;;;;;;23.42;3.25;;;;;;;;;;5072916;28;20028;-73
2022/12/24 14:38:41;;;;;;;17.17;2.92;;;;;;;;;;5072261;28;20469;-73
2022/12/24 14:41:07;;;;;;;14.02;2.90;;;;;;;;;;5072300;28;20500;-73
2022/12/24 14:43:46;;;;;;;20.40;3.50;;;;;;;;;;5071741;28;20505;-73
2022/12/24 14:46:31;;;;;;;22.58;3.70;;;;;;;;;;5071858;28;20047;-72
2022/12/24 14:49:00;;;;;;;22.52;4.50;;;;;;;;;;5055411;28;20084;-73